createdAt,value
2018-12-16T00:02:02.555Z,-2.16
2018-12-16T00:04:32.312Z,-2.15
2018-12-16T00:07:02.023Z,-2.18
2018-12-16T00:09:31.857Z,-2.19
2018-12-16T00:12:02.159Z,-2.18
2018-12-16T00:14:34.093Z,-2.17
2018-12-16T00:17:03.954Z,-2.16
2018-12-16T00:19:36.807Z,-2.17
2018-12-16T00:22:05.979Z,-2.19
2018-12-16T00:24:33.537Z,-2.18
2018-12-16T00:27:11.545Z,-2.19
2018-12-16T00:29:41.209Z,-2.23
2018-12-16T00:32:10.917Z,-2.21
2018-12-16T00:34:40.741Z,-2.23
2018-12-16T00:37:10.548Z,-2.22
2018-12-16T00:39:42.491Z,-2.23
2018-12-16T00:42:12.459Z,-2.28
2018-12-16T00:44:46.263Z,-2.28
2018-12-16T00:47:16.013Z,-2.29
2018-12-16T00:49:47.988Z,-2.30
2018-12-16T00:52:16.598Z,-2.29
2018-12-16T00:54:46.453Z,-2.28
2018-12-16T00:57:19.835Z,-2.26
2018-12-16T00:59:52.788Z,-2.31
2018-12-16T01:02:40.340Z,-2.33
2018-12-16T01:05:10.159Z,-2.34
2018-12-16T01:07:40.406Z,-2.33
2018-12-16T01:10:11.011Z,-2.35
2018-12-16T01:12:40.659Z,-2.40
2018-12-16T01:15:10.335Z,-2.42
2018-12-16T01:17:40.297Z,-2.42
2018-12-16T01:20:13.075Z,-2.47
2018-12-16T01:22:43.784Z,-2.45
2018-12-16T01:25:13.023Z,-2.43
2018-12-16T01:27:42.901Z,-2.41
2018-12-16T01:30:14.974Z,-2.43
2018-12-16T01:32:42.431Z,-2.45
2018-12-16T01:35:13.955Z,-2.47
2018-12-16T01:37:41.779Z,-2.50
2018-12-16T01:40:11.688Z,-2.52
2018-12-16T01:42:41.313Z,-2.52
2018-12-16T01:45:11.357Z,-2.55
2018-12-16T01:47:40.997Z,-2.54
2018-12-16T01:50:11.048Z,-2.55
2018-12-16T01:52:40.859Z,-2.57
2018-12-16T01:55:10.772Z,-2.60
2018-12-16T01:57:40.677Z,-2.57
2018-12-16T02:00:11.877Z,-2.55
2018-12-16T02:02:41.579Z,-2.54
2018-12-16T02:05:11.307Z,-2.58
2018-12-16T02:07:41.019Z,-2.58
2018-12-16T02:10:13.383Z,-2.62
2018-12-16T02:12:40.464Z,-2.63
2018-12-16T02:15:10.195Z,-2.61
2018-12-16T02:17:40.009Z,-2.61
2018-12-16T02:20:09.719Z,-2.63
2018-12-16T02:22:39.495Z,-2.64
2018-12-16T02:25:09.647Z,-2.66
2018-12-16T02:27:39.873Z,-2.66
2018-12-16T02:30:28.648Z,-2.65
2018-12-16T02:33:03.644Z,-2.65
2018-12-16T02:35:36.331Z,-2.66
2018-12-16T02:38:06.007Z,-2.63
2018-12-16T02:40:36.071Z,-2.63
2018-12-16T02:43:05.892Z,-2.65
2018-12-16T02:45:35.759Z,-2.63
2018-12-16T02:48:08.207Z,-2.62
2018-12-16T02:50:35.293Z,-2.62
2018-12-16T02:53:05.669Z,-2.62
2018-12-16T02:55:35.351Z,-2.61
2018-12-16T02:58:05.030Z,-2.61
2018-12-16T03:00:34.803Z,-2.61
2018-12-16T03:03:04.545Z,-2.58
2018-12-16T03:05:34.883Z,-2.56
2018-12-16T03:08:04.579Z,-2.55
2018-12-16T03:10:37.289Z,-2.53
2018-12-16T03:13:06.981Z,-2.50
2018-12-16T03:15:36.836Z,-2.49
2018-12-16T03:18:06.672Z,-2.48
2018-12-16T03:20:36.770Z,-2.47
2018-12-16T03:23:12.159Z,-2.46
2018-12-16T03:25:36.511Z,-2.44
2018-12-16T03:28:06.117Z,-2.42
2018-12-16T03:30:35.791Z,-2.42
2018-12-16T03:33:05.671Z,-2.43
2018-12-16T03:35:35.235Z,-2.44
2018-12-16T03:38:04.913Z,-2.44
2018-12-16T03:40:35.141Z,-2.42
2018-12-16T03:43:04.760Z,-2.43
2018-12-16T03:45:34.503Z,-2.46
2018-12-16T03:48:04.016Z,-2.44
2018-12-16T03:50:34.069Z,-2.43
2018-12-16T03:53:03.657Z,-2.43
2018-12-16T03:55:33.481Z,-2.41
2018-12-16T03:58:03.413Z,-2.40
2018-12-16T04:00:33.317Z,-2.39
2018-12-16T04:03:03.309Z,-2.38
2018-12-16T04:05:33.164Z,-2.37
2018-12-16T04:08:06.434Z,-2.35
2018-12-16T04:10:33.143Z,-2.36
2018-12-16T04:13:02.774Z,-2.36
2018-12-16T04:15:35.231Z,-2.33
2018-12-16T04:18:05.135Z,-2.33
2018-12-16T04:20:37.835Z,-2.31
2018-12-16T04:23:09.745Z,-2.31
2018-12-16T04:25:37.427Z,-2.27
2018-12-16T04:28:07.504Z,-2.28
2018-12-16T04:30:37.661Z,-2.29
2018-12-16T04:33:07.329Z,-2.29
2018-12-16T04:35:40.246Z,-2.30
2018-12-16T04:38:13.127Z,-2.30
2018-12-16T04:40:43.019Z,-2.29
2018-12-16T04:43:18.559Z,-2.28
2018-12-16T04:45:48.801Z,-2.25
2018-12-16T04:48:18.511Z,-2.21
2018-12-16T04:50:48.424Z,-2.20
2018-12-16T04:53:18.666Z,-2.17
2018-12-16T04:55:48.543Z,-2.16
2018-12-16T04:58:18.601Z,-2.09
2018-12-16T05:00:48.822Z,-2.09
2018-12-16T05:03:18.681Z,-2.07
2018-12-16T05:05:51.615Z,-2.08
2018-12-16T05:08:24.347Z,-2.07
2018-12-16T05:10:56.161Z,-2.04
2018-12-16T05:13:28.715Z,-2.03
2018-12-16T05:15:58.849Z,-2.03
2018-12-16T05:18:31.543Z,-2.04
2018-12-16T05:21:01.763Z,-1.99
2018-12-16T05:23:31.678Z,-1.99
2018-12-16T05:26:01.551Z,-1.95
2018-12-16T05:28:33.351Z,-1.96
2018-12-16T05:31:05.997Z,-1.94
2018-12-16T05:33:37.956Z,-1.94
2018-12-16T05:36:08.162Z,-1.91
2018-12-16T05:38:40.731Z,-1.91
2018-12-16T05:41:13.627Z,-1.93
2018-12-16T05:43:43.421Z,-1.91
2018-12-16T05:46:13.967Z,-1.90
2018-12-16T05:48:46.598Z,-1.91
2018-12-16T05:51:13.829Z,-1.91
2018-12-16T05:53:48.959Z,-1.92
2018-12-16T05:56:16.842Z,-1.92
2018-12-16T05:58:47.024Z,-1.92
2018-12-16T06:01:16.642Z,-1.91
2018-12-16T06:03:47.052Z,-1.89
2018-12-16T06:06:20.061Z,-1.89
2018-12-16T06:08:50.027Z,-1.90
2018-12-16T06:11:19.944Z,-1.90
2018-12-16T06:13:51.802Z,-1.88
2018-12-16T06:16:24.229Z,-1.83
2018-12-16T06:18:53.987Z,-1.81
2018-12-16T06:21:26.671Z,-1.82
2018-12-16T06:23:56.507Z,-1.83
2018-12-16T06:26:29.005Z,-1.79
2018-12-16T06:29:00.925Z,-1.77
2018-12-16T06:31:32.997Z,-1.77
2018-12-16T06:34:03.077Z,-1.76
2018-12-16T06:36:33.328Z,-1.75
2018-12-16T06:39:04.347Z,-1.77
2018-12-16T06:41:34.533Z,-1.74
2018-12-16T06:44:04.331Z,-1.73
2018-12-16T06:46:34.525Z,-1.75
2018-12-16T06:49:04.768Z,-1.73
2018-12-16T06:51:34.863Z,-1.72
2018-12-16T06:54:06.990Z,-1.71
2018-12-16T06:56:37.162Z,-1.70
2018-12-16T06:59:07.323Z,-1.68
2018-12-16T07:07:19.153Z,-1.59
2018-12-16T07:09:48.454Z,-1.58
2018-12-16T07:12:17.755Z,-1.59
2018-12-16T07:14:47.066Z,-1.58
2018-12-16T07:19:45.706Z,-1.59
2018-12-16T07:22:14.962Z,-1.58
2018-12-16T07:24:44.268Z,-1.58
2018-12-16T07:27:16.060Z,-1.55
2018-12-16T07:29:45.431Z,-1.54
2018-12-16T07:32:14.823Z,-1.54
2018-12-16T07:34:44.059Z,-1.54
2018-12-16T07:37:19.051Z,-1.53
2018-12-16T07:39:42.717Z,-1.58
2018-12-16T07:42:12.108Z,-1.58
2018-12-16T07:44:41.391Z,-1.52
2018-12-16T07:47:10.682Z,-1.37
2018-12-16T07:49:40.123Z,-1.24
2018-12-16T07:52:09.492Z,-1.03
2018-12-16T07:54:38.899Z,-0.93
2018-12-16T07:57:08.233Z,-0.51
2018-12-16T07:59:37.630Z,-0.52
2018-12-16T08:02:07.010Z,-0.65
2018-12-16T08:04:36.362Z,-0.75
2018-12-16T08:07:05.659Z,-0.82
2018-12-16T08:09:35.042Z,-0.92
2018-12-16T08:12:04.565Z,-1.00
2018-12-16T08:14:33.864Z,-1.06
2018-12-16T08:17:03.172Z,-1.10
2018-12-16T08:19:32.555Z,-1.12
2018-12-16T08:22:01.866Z,-1.13
2018-12-16T08:24:31.145Z,-1.15
2018-12-16T08:27:00.580Z,-1.16
2018-12-16T08:29:29.882Z,-1.17
2018-12-16T08:31:59.542Z,-1.18
2018-12-16T08:34:28.847Z,-1.13
2018-12-16T08:36:58.186Z,-1.04
2018-12-16T08:39:27.499Z,-1.00
2018-12-16T08:41:56.928Z,-0.98
2018-12-16T08:44:26.290Z,-0.96
2018-12-16T08:46:55.541Z,-0.95
2018-12-16T08:49:24.897Z,-0.92
2018-12-16T08:51:54.429Z,-0.85
2018-12-16T08:54:29.932Z,-0.82
2018-12-16T08:56:53.469Z,-0.80
2018-12-16T08:59:23.045Z,-0.76
2018-12-16T09:01:52.303Z,-0.75
2018-12-16T09:04:21.689Z,-0.73
2018-12-16T09:06:51.034Z,-0.72
2018-12-16T09:09:20.393Z,-0.66
2018-12-16T09:11:49.684Z,-0.67
2018-12-16T09:14:19.038Z,-0.61
2018-12-16T09:16:48.370Z,-0.57
2018-12-16T09:19:17.638Z,-0.52
2018-12-16T09:21:46.948Z,-0.48
2018-12-16T09:24:16.249Z,-0.46
2018-12-16T09:26:45.500Z,-0.44
2018-12-16T09:29:14.818Z,-0.44
2018-12-16T09:31:44.233Z,-0.43
2018-12-16T09:34:13.654Z,-0.41
2018-12-16T09:36:42.894Z,-0.38
2018-12-16T09:39:12.227Z,-0.40
2018-12-16T09:41:41.537Z,-0.37
2018-12-16T09:44:10.844Z,-0.35
2018-12-16T09:46:40.144Z,-0.36
2018-12-16T09:49:09.489Z,-0.38
2018-12-16T09:51:38.791Z,-0.39
2018-12-16T09:54:08.134Z,-0.38
2018-12-16T09:56:37.468Z,-0.40
2018-12-16T09:59:06.951Z,-0.41
2018-12-16T10:01:36.251Z,-0.41
2018-12-16T10:04:05.658Z,-0.42
2018-12-16T10:06:35.033Z,-0.45
2018-12-16T10:09:06.254Z,-0.45
2018-12-16T10:11:35.581Z,-0.44
2018-12-16T10:14:05.087Z,-0.44
2018-12-16T10:16:34.410Z,-0.42
2018-12-16T10:19:03.731Z,-0.39
2018-12-16T10:21:33.105Z,-0.38
2018-12-16T10:24:02.421Z,-0.35
2018-12-16T10:26:31.797Z,-0.32
2018-12-16T10:29:01.225Z,-0.28
2018-12-16T10:31:32.123Z,-0.28
2018-12-16T10:33:59.864Z,-0.30
2018-12-16T10:36:29.223Z,-0.30
2018-12-16T10:38:58.533Z,-0.30
2018-12-16T10:41:27.827Z,-0.28
2018-12-16T10:43:57.185Z,-0.28
2018-12-16T10:46:26.525Z,-0.28
2018-12-16T10:48:55.922Z,-0.24
2018-12-16T10:51:25.245Z,-0.20
2018-12-16T10:53:54.571Z,-0.20
2018-12-16T10:56:23.871Z,-0.18
2018-12-16T10:58:53.270Z,-0.17
2018-12-16T11:01:28.608Z,-0.16
2018-12-16T11:03:58.264Z,-0.14
2018-12-16T11:06:27.582Z,-0.12
2018-12-16T11:08:56.913Z,-0.10
2018-12-16T11:11:26.195Z,-0.09
2018-12-16T11:13:55.661Z,-0.09
2018-12-16T11:16:24.943Z,-0.04
2018-12-16T11:18:54.280Z,-0.05
2018-12-16T11:21:23.712Z,-0.01
2018-12-16T11:23:53.980Z,-0.02
2018-12-16T11:26:22.366Z,-0.01
2018-12-16T11:28:51.670Z,-0.02
2018-12-16T11:31:21.004Z,0.00
2018-12-16T11:33:50.440Z,-0.02
2018-12-16T11:36:19.799Z,1.09
2018-12-16T11:38:49.197Z,2.40
2018-12-16T11:41:18.640Z,2.75
2018-12-16T11:43:48.282Z,3.09
2018-12-16T11:46:17.562Z,3.89
2018-12-16T11:48:46.958Z,4.13
2018-12-16T11:51:16.353Z,4.02
2018-12-16T11:53:45.687Z,3.48
2018-12-16T11:56:17.295Z,3.32
2018-12-16T11:58:46.593Z,2.97
2018-12-16T12:01:15.886Z,2.62
2018-12-16T12:03:45.206Z,2.07
2018-12-16T12:06:14.525Z,1.65
2018-12-16T12:08:43.827Z,1.44
2018-12-16T12:11:13.360Z,1.19
2018-12-16T12:13:42.662Z,0.83
2018-12-16T12:16:12.028Z,0.59
2018-12-16T12:18:41.410Z,0.34
2018-12-16T12:21:10.730Z,0.31
2018-12-16T12:23:40.044Z,0.29
2018-12-16T12:26:09.358Z,0.36
2018-12-16T12:28:38.932Z,0.27
2018-12-16T12:31:08.291Z,0.19
2018-12-16T12:33:37.610Z,0.09
2018-12-16T12:36:06.896Z,-0.03
2018-12-16T12:38:36.206Z,-0.17
2018-12-16T12:41:05.658Z,-0.11
2018-12-16T12:43:34.967Z,-0.05
2018-12-16T12:46:04.269Z,-0.08
2018-12-16T12:48:33.593Z,-0.12
2018-12-16T12:51:21.372Z,-0.13
2018-12-16T12:53:50.908Z,-0.11
2018-12-16T12:56:20.154Z,-0.06
2018-12-16T12:58:49.453Z,-0.05
2018-12-16T13:01:18.779Z,-0.01
2018-12-16T13:03:48.068Z,0.01
2018-12-16T13:06:17.771Z,-0.08
2018-12-16T13:08:47.086Z,-0.06
2018-12-16T13:11:16.376Z,-0.10
2018-12-16T13:13:45.776Z,-0.02
2018-12-16T13:16:15.119Z,-0.07
2018-12-16T13:18:44.397Z,-0.08
2018-12-16T13:21:14.034Z,-0.04
2018-12-16T13:23:43.435Z,0.03
2018-12-16T13:26:12.718Z,0.01
2018-12-16T13:28:42.143Z,0.01
2018-12-16T13:31:11.532Z,0.00
2018-12-16T13:33:41.212Z,-0.02
2018-12-16T13:36:11.160Z,-0.02
2018-12-16T13:38:40.602Z,-0.10
2018-12-16T13:41:10.016Z,-0.12
2018-12-16T13:43:39.389Z,-0.15
2018-12-16T13:46:08.680Z,-0.16
2018-12-16T13:48:38.443Z,-0.15
2018-12-16T13:51:07.803Z,-0.17
2018-12-16T13:53:39.710Z,-0.17
2018-12-16T13:56:09.072Z,-0.19
2018-12-16T13:58:38.466Z,-0.24
2018-12-16T14:01:07.881Z,-0.31
2018-12-16T14:03:37.285Z,-0.37
2018-12-16T14:06:08.958Z,-0.47
2018-12-16T14:08:38.259Z,-0.51
2018-12-16T14:11:07.632Z,-0.55
2018-12-16T14:13:37.012Z,-0.56
2018-12-16T14:16:11.048Z,-0.56
2018-12-16T14:18:43.366Z,-0.52
2018-12-16T14:21:12.716Z,-0.33
2018-12-16T14:23:41.998Z,0.99
2018-12-16T14:26:11.798Z,1.18
2018-12-16T14:28:41.087Z,0.85
2018-12-16T14:31:12.189Z,0.53
2018-12-16T14:33:41.479Z,0.30
2018-12-16T14:36:10.781Z,0.16
2018-12-16T14:38:40.511Z,-0.01
2018-12-16T14:41:09.915Z,-0.09
2018-12-16T14:43:39.249Z,-0.26
2018-12-16T14:46:13.114Z,-0.34
2018-12-16T14:48:42.593Z,-0.48
2018-12-16T14:51:11.919Z,-0.52
2018-12-16T14:53:41.204Z,-0.60
2018-12-16T14:56:10.503Z,-0.64
2018-12-16T14:58:39.796Z,-0.76
2018-12-16T15:01:11.604Z,-0.76
2018-12-16T15:03:40.960Z,-0.78
2018-12-16T15:06:10.240Z,-0.81
2018-12-16T15:08:39.615Z,-0.79
2018-12-16T15:11:08.962Z,-0.82
2018-12-16T15:13:42.384Z,-0.85
2018-12-16T15:16:10.277Z,-0.86
2018-12-16T15:18:38.993Z,-0.86
2018-12-16T15:21:08.317Z,-0.85
2018-12-16T15:23:39.798Z,-0.84
2018-12-16T15:26:07.017Z,-0.84
2018-12-16T15:28:36.311Z,-0.85
2018-12-16T15:31:05.620Z,-0.87
2018-12-16T15:33:34.890Z,-0.86
2018-12-16T15:36:04.226Z,-0.87
2018-12-16T15:38:33.530Z,-1.59
2018-12-16T15:44:31.975Z,-0.58
2018-12-16T15:47:01.229Z,-0.54
2018-12-16T15:49:30.568Z,-0.45
2018-12-16T15:51:59.840Z,-0.60
2018-12-16T15:54:31.249Z,-0.68
2018-12-16T15:57:00.532Z,-0.78
2018-12-16T15:59:29.990Z,-0.84
2018-12-16T16:01:59.318Z,-0.93
2018-12-16T16:04:28.624Z,-1.00
2018-12-16T16:06:57.949Z,-1.06
2018-12-16T16:09:27.249Z,-1.10
2018-12-16T16:11:56.598Z,-1.10
2018-12-16T16:14:25.939Z,-1.14
2018-12-16T16:16:55.328Z,-1.14
2018-12-16T16:19:24.714Z,-1.13
2018-12-16T16:21:54.084Z,-1.12
2018-12-16T16:24:23.401Z,-1.08
2018-12-16T16:26:52.712Z,-1.09
2018-12-16T16:29:22.018Z,-1.08
2018-12-16T16:31:51.378Z,-1.05
2018-12-16T16:34:23.438Z,-1.03
2018-12-16T16:36:52.759Z,-1.00
2018-12-16T16:39:22.035Z,-0.96
2018-12-16T16:41:51.440Z,-0.95
2018-12-16T16:44:20.796Z,-0.94
2018-12-16T16:46:50.113Z,-0.92
2018-12-16T16:49:19.440Z,-0.88
2018-12-16T16:51:48.781Z,-0.89
2018-12-16T16:54:23.846Z,-0.89
2018-12-16T16:56:53.163Z,-0.88
2018-12-16T16:59:22.541Z,-0.86
2018-12-16T17:01:51.812Z,-0.88
2018-12-16T17:04:21.173Z,-0.90
2018-12-16T17:06:50.548Z,-0.90
2018-12-16T17:09:19.880Z,-0.89
2018-12-16T17:11:49.201Z,-0.86
2018-12-16T17:14:18.544Z,-0.85
2018-12-16T17:16:47.855Z,-0.85
2018-12-16T17:19:17.169Z,-0.84
2018-12-16T17:21:46.486Z,-0.83
2018-12-16T17:24:24.594Z,-0.81
2018-12-16T17:26:53.965Z,-0.77
2018-12-16T17:29:23.329Z,-0.77
2018-12-16T17:31:52.756Z,-0.77
2018-12-16T17:34:22.087Z,-0.79
2018-12-16T17:36:52.055Z,-0.79
2018-12-16T17:39:21.425Z,-0.78
2018-12-16T17:41:50.712Z,-0.76
2018-12-16T17:44:20.117Z,-0.73
2018-12-16T17:46:49.403Z,-0.74
2018-12-16T17:49:18.725Z,-0.76
2018-12-16T17:51:48.100Z,-0.76
2018-12-16T17:54:17.541Z,-0.74
2018-12-16T17:56:46.911Z,-0.74
2018-12-16T17:59:18.077Z,-0.73
2018-12-16T18:01:45.592Z,-0.70
2018-12-16T18:04:14.944Z,-0.68
2018-12-16T18:06:44.273Z,-0.65
2018-12-16T18:09:13.815Z,-0.65
2018-12-16T18:11:43.224Z,-0.61
2018-12-16T18:14:12.513Z,-0.63
2018-12-16T18:16:41.899Z,-0.63
2018-12-16T18:19:11.414Z,-0.65
2018-12-16T18:21:43.153Z,-0.63
2018-12-16T18:24:12.744Z,-0.68
2018-12-16T18:26:44.200Z,-0.67
2018-12-16T18:29:11.435Z,-0.64
2018-12-16T18:31:40.816Z,-0.61
2018-12-16T18:34:10.243Z,-0.61
2018-12-16T18:36:39.781Z,-0.61
2018-12-16T18:39:09.887Z,-0.61
2018-12-16T18:41:39.276Z,-0.62
2018-12-16T18:44:08.548Z,-0.61
2018-12-16T18:46:37.872Z,-0.63
2018-12-16T18:49:07.919Z,-0.64
2018-12-16T18:51:36.547Z,-0.63
2018-12-16T18:54:05.962Z,-0.64
2018-12-16T18:56:35.355Z,-0.64
2018-12-16T18:59:04.643Z,-0.70
2018-12-16T19:01:33.980Z,-0.70
2018-12-16T19:04:06.705Z,-0.74
2018-12-16T19:06:39.112Z,-0.74
2018-12-16T19:09:08.816Z,-0.72
2018-12-16T19:11:38.144Z,-0.73
2018-12-16T19:14:07.532Z,-0.76
2018-12-16T19:16:37.018Z,-0.75
2018-12-16T19:19:06.416Z,-0.74
2018-12-16T19:21:38.448Z,-0.69
2018-12-16T19:24:07.774Z,-0.69
2018-12-16T19:26:37.124Z,-0.69
2018-12-16T19:29:06.516Z,-0.68
2018-12-16T19:31:35.980Z,-0.66
2018-12-16T19:34:05.230Z,-0.67
2018-12-16T19:36:34.547Z,-0.63
2018-12-16T19:39:04.234Z,-0.61
2018-12-16T19:41:33.642Z,-0.64
2018-12-16T19:44:03.123Z,-0.64
2018-12-16T19:46:32.479Z,-0.61
2018-12-16T19:49:01.765Z,-0.62
2018-12-16T19:51:31.174Z,-0.61
2018-12-16T19:54:00.636Z,-0.57
2018-12-16T19:56:30.071Z,-0.57
2018-12-16T19:58:59.413Z,-0.57
2018-12-16T20:01:29.071Z,-0.58
2018-12-16T20:04:20.314Z,-0.54
2018-12-16T20:06:49.726Z,-0.54
2018-12-16T20:09:19.168Z,-0.55
2018-12-16T20:11:48.552Z,-0.54
2018-12-16T20:14:17.992Z,-0.56
2018-12-16T20:16:47.448Z,-0.54
2018-12-16T20:19:16.818Z,-0.52
2018-12-16T20:21:46.213Z,-0.51
2018-12-16T20:24:15.514Z,-0.50
2018-12-16T20:26:44.844Z,-0.52
2018-12-16T20:29:16.874Z,-0.49
2018-12-16T20:31:45.824Z,-0.46
2018-12-16T20:34:15.184Z,-0.30
2018-12-16T20:36:44.513Z,-0.31
2018-12-16T20:39:13.901Z,-0.32
2018-12-16T20:41:43.254Z,-0.26
2018-12-16T20:44:12.579Z,0.03
2018-12-16T20:46:41.930Z,0.04
2018-12-16T20:49:11.280Z,-0.05
2018-12-16T20:51:40.594Z,-0.13
2018-12-16T20:54:09.962Z,-0.17
2018-12-16T20:56:39.392Z,-0.25
2018-12-16T20:59:08.730Z,-0.25
2018-12-16T21:01:38.112Z,-0.24
2018-12-16T21:04:07.469Z,-0.25
2018-12-16T21:06:36.817Z,-0.27
2018-12-16T21:09:07.029Z,-0.26
2018-12-16T21:11:54.195Z,-0.30
2018-12-16T21:14:41.288Z,-0.27
2018-12-16T21:17:28.676Z,-0.24
2018-12-16T21:20:00.459Z,-0.20
2018-12-16T21:22:29.786Z,-0.24
2018-12-16T21:24:59.124Z,-0.20
2018-12-16T21:27:28.428Z,-0.20
2018-12-16T21:29:57.743Z,-0.23
2018-12-16T21:32:27.049Z,-1.32
2018-12-16T21:34:56.319Z,-0.20
2018-12-16T21:37:25.880Z,-0.20
2018-12-16T21:39:55.161Z,-0.17
2018-12-16T21:42:24.470Z,-0.17
2018-12-16T21:44:53.769Z,-0.16
2018-12-16T21:47:23.061Z,-0.14
2018-12-16T21:49:52.344Z,-0.13
2018-12-16T21:52:21.711Z,-0.11
2018-12-16T21:54:51.037Z,-0.11
2018-12-16T21:57:20.369Z,-0.09
2018-12-16T21:59:49.660Z,-0.07
2018-12-16T22:02:19.080Z,-0.03
2018-12-16T22:04:48.334Z,-0.02
2018-12-16T22:07:17.642Z,-0.01
2018-12-16T22:09:47.017Z,0.01
2018-12-16T22:12:16.367Z,0.02
2018-12-16T22:14:45.634Z,0.03
2018-12-16T22:17:15.040Z,0.05
2018-12-16T22:19:44.378Z,0.08
2018-12-16T22:22:13.763Z,0.08
2018-12-16T22:24:43.079Z,0.09
2018-12-16T22:27:12.457Z,0.13
2018-12-16T22:29:41.753Z,0.13
2018-12-16T22:32:11.046Z,0.13
2018-12-16T22:34:40.342Z,0.13
2018-12-16T22:37:09.629Z,0.14
2018-12-16T22:39:38.944Z,0.15
2018-12-16T22:42:08.237Z,0.15
2018-12-16T22:44:37.552Z,0.18
2018-12-16T22:47:06.814Z,0.17
2018-12-16T22:49:36.130Z,0.19
2018-12-16T22:52:05.460Z,0.18
2018-12-16T22:54:34.752Z,0.21
2018-12-16T22:57:04.148Z,0.20
2018-12-16T22:59:33.465Z,0.19
2018-12-16T23:02:02.794Z,0.22
2018-12-16T23:04:32.116Z,0.19
2018-12-16T23:07:01.388Z,0.20
2018-12-16T23:09:30.661Z,0.19
2018-12-16T23:11:59.939Z,0.20
2018-12-16T23:14:30.008Z,0.21
2018-12-16T23:16:59.304Z,0.21
2018-12-16T23:19:28.555Z,0.21
2018-12-16T23:21:57.856Z,0.23
2018-12-16T23:24:27.159Z,0.24
2018-12-16T23:26:56.557Z,0.21
2018-12-16T23:29:25.841Z,0.21
2018-12-16T23:31:55.105Z,0.21
2018-12-16T23:34:24.388Z,0.20
2018-12-16T23:36:53.669Z,0.20
2018-12-16T23:39:22.939Z,0.19
2018-12-16T23:41:52.242Z,0.18
2018-12-16T23:44:21.489Z,0.20
2018-12-16T23:46:50.859Z,0.24
2018-12-16T23:49:20.222Z,0.27
2018-12-16T23:51:49.503Z,0.30
2018-12-16T23:54:18.755Z,0.33
2018-12-16T23:56:48.148Z,0.33
2018-12-16T23:59:17.464Z,0.32
